createdAt,value
2024-02-29T00:00:51.432Z,27.90
2024-02-29T00:03:41.699Z,38.40
2024-02-29T00:06:10.167Z,27.70
2024-02-29T00:08:38.488Z,25.70
2024-02-29T00:11:07.540Z,32.70
2024-02-29T00:13:36.063Z,34.30
2024-02-29T00:16:04.918Z,33.60
2024-02-29T00:18:33.680Z,29.30
2024-02-29T00:21:01.961Z,37.50
2024-02-29T00:23:30.360Z,38.30
2024-02-29T00:26:06.266Z,40.00
2024-02-29T00:28:34.894Z,40.00
2024-02-29T00:31:12.925Z,32.80
2024-02-29T00:33:50.521Z,37.60
2024-02-29T00:36:18.978Z,33.60
2024-02-29T00:38:58.801Z,31.70
2024-02-29T00:41:34.503Z,39.10
2024-02-29T00:44:29.847Z,40.80
2024-02-29T00:47:01.709Z,30.70
2024-02-29T00:49:50.402Z,32.10
2024-02-29T00:52:18.811Z,32.30
2024-02-29T00:54:47.402Z,30.30
2024-02-29T00:57:15.775Z,32.30
2024-02-29T00:59:44.340Z,34.50
2024-02-29T01:02:23.301Z,41.40
2024-02-29T01:04:52.439Z,41.40
2024-02-29T01:07:21.505Z,35.40
2024-02-29T01:09:50.706Z,32.40
2024-02-29T01:12:22.670Z,37.10
2024-02-29T01:14:53.980Z,32.80
2024-02-29T01:17:26.241Z,31.50
2024-02-29T01:19:54.615Z,39.90
2024-02-29T01:22:22.912Z,37.90
2024-02-29T01:24:54.817Z,32.00
2024-02-29T01:27:23.786Z,32.30
2024-02-29T01:29:53.326Z,34.50
2024-02-29T01:32:27.925Z,35.20
2024-02-29T01:35:00.469Z,33.60
2024-02-29T01:37:29.058Z,35.30
2024-02-29T01:39:57.366Z,31.00
2024-02-29T01:42:29.078Z,39.50
2024-02-29T01:44:57.760Z,35.70
2024-02-29T01:47:27.754Z,29.70
2024-02-29T01:50:04.331Z,36.60
2024-02-29T01:52:37.503Z,37.60
2024-02-29T01:55:09.571Z,30.80
2024-02-29T01:57:39.182Z,45.30
2024-02-29T02:00:10.082Z,30.60
2024-02-29T02:05:18.055Z,33.20
2024-02-29T02:07:50.106Z,29.60
2024-02-29T02:10:27.410Z,34.60
2024-02-29T02:12:58.607Z,30.70
2024-02-29T02:15:30.271Z,28.50
2024-02-29T02:18:11.126Z,30.80
2024-02-29T02:20:51.326Z,30.40
2024-02-29T02:23:23.200Z,30.50
2024-02-29T02:25:52.235Z,27.80
2024-02-29T02:28:20.720Z,29.10
2024-02-29T02:30:49.150Z,35.10
2024-02-29T02:33:24.326Z,35.20
2024-02-29T02:35:52.807Z,28.50
2024-02-29T02:38:24.205Z,31.90
2024-02-29T02:41:02.662Z,33.20
2024-02-29T02:43:43.905Z,34.70
2024-02-29T02:46:13.046Z,32.70
2024-02-29T02:48:41.655Z,38.50
2024-02-29T02:51:10.202Z,36.20
2024-02-29T02:53:40.998Z,30.80
2024-02-29T02:56:09.505Z,31.10
2024-02-29T02:58:40.318Z,38.30
2024-02-29T03:01:13.616Z,36.70
2024-02-29T03:03:48.827Z,38.60
2024-02-29T03:06:17.492Z,30.90
2024-02-29T03:08:46.083Z,34.50
2024-02-29T03:11:17.721Z,30.90
2024-02-29T03:13:52.467Z,35.70
2024-02-29T03:16:24.714Z,34.80
2024-02-29T03:18:53.148Z,40.20
2024-02-29T03:21:24.896Z,41.20
2024-02-29T03:23:54.241Z,42.40
2024-02-29T03:26:29.559Z,36.60
2024-02-29T03:29:18.161Z,39.60
2024-02-29T03:31:46.834Z,45.00
2024-02-29T03:34:16.452Z,41.70
2024-02-29T03:36:47.504Z,46.00
2024-02-29T03:39:18.314Z,38.30
2024-02-29T03:41:54.587Z,43.40
2024-02-29T03:44:23.075Z,43.30
2024-02-29T03:46:51.597Z,41.20
2024-02-29T03:49:20.337Z,38.20
2024-02-29T03:51:48.599Z,43.20
2024-02-29T03:54:17.046Z,45.20
2024-02-29T03:56:59.751Z,37.10
2024-02-29T03:59:31.361Z,34.50
2024-02-29T04:02:01.472Z,42.80
2024-02-29T04:04:30.839Z,35.40
2024-02-29T04:06:59.297Z,36.30
2024-02-29T04:09:27.672Z,37.10
2024-02-29T04:11:56.671Z,33.90
2024-02-29T04:14:30.698Z,41.00
2024-02-29T04:16:59.233Z,33.80
2024-02-29T04:19:30.629Z,34.80
2024-02-29T04:22:01.336Z,36.60
2024-02-29T04:24:35.399Z,40.40
2024-02-29T04:27:04.498Z,31.10
2024-02-29T04:29:38.417Z,33.20
2024-02-29T04:32:12.534Z,34.10
2024-02-29T04:34:42.593Z,27.30
2024-02-29T04:37:10.921Z,27.80
2024-02-29T04:39:39.672Z,30.90
2024-02-29T04:42:19.818Z,30.30
2024-02-29T04:44:51.657Z,29.50
2024-02-29T04:47:20.456Z,34.40
2024-02-29T04:49:51.253Z,33.60
2024-02-29T04:52:19.793Z,35.30
2024-02-29T04:54:55.951Z,32.20
2024-02-29T04:57:24.378Z,37.20
2024-02-29T04:59:55.355Z,36.10
2024-02-29T05:02:24.423Z,31.60
2024-02-29T05:04:52.895Z,31.60
2024-02-29T05:07:22.525Z,28.90
2024-02-29T05:09:51.153Z,38.60
2024-02-29T05:12:21.096Z,33.50
2024-02-29T05:14:49.968Z,31.20
2024-02-29T05:17:27.303Z,34.40
2024-02-29T05:20:01.449Z,39.90
2024-02-29T05:22:38.724Z,36.10
2024-02-29T05:25:14.828Z,33.40
2024-02-29T05:27:43.641Z,38.00
2024-02-29T05:30:13.144Z,34.50
2024-02-29T05:32:42.150Z,35.70
2024-02-29T05:35:13.761Z,35.30
2024-02-29T05:37:49.828Z,36.20
2024-02-29T05:40:18.608Z,31.70
2024-02-29T05:42:47.216Z,34.00
2024-02-29T05:45:26.127Z,38.00
2024-02-29T05:48:24.034Z,37.30
2024-02-29T05:50:57.490Z,35.60
2024-02-29T05:53:33.970Z,34.70
2024-02-29T05:56:14.876Z,42.50
2024-02-29T05:58:52.929Z,40.40
2024-02-29T06:01:34.009Z,35.10
2024-02-29T06:04:08.669Z,37.20
2024-02-29T06:06:39.926Z,32.60
2024-02-29T06:09:08.371Z,33.10
2024-02-29T06:11:37.110Z,41.20
2024-02-29T06:14:11.679Z,41.90
2024-02-29T06:16:42.822Z,41.50
2024-02-29T06:19:11.448Z,36.10
2024-02-29T06:21:43.046Z,30.90
2024-02-29T06:24:22.006Z,33.30
2024-02-29T06:26:50.868Z,30.10
2024-02-29T06:29:21.601Z,27.80
2024-02-29T06:31:50.312Z,35.70
2024-02-29T06:34:21.914Z,38.90
2024-02-29T06:36:50.770Z,35.40
2024-02-29T06:39:22.418Z,39.80
2024-02-29T06:41:56.293Z,39.00
2024-02-29T06:44:25.028Z,36.70
2024-02-29T06:46:56.174Z,37.50
2024-02-29T06:49:24.867Z,41.60
2024-02-29T06:51:53.775Z,39.50
2024-02-29T06:54:45.466Z,42.70
2024-02-29T06:57:14.059Z,35.60
2024-02-29T06:59:42.713Z,35.60
2024-02-29T07:02:11.554Z,34.40
2024-02-29T07:04:42.469Z,39.30
2024-02-29T07:07:11.279Z,37.00
2024-02-29T07:09:44.137Z,37.70
2024-02-29T07:12:12.637Z,39.10
2024-02-29T07:14:46.509Z,37.70
2024-02-29T07:17:19.979Z,51.90
2024-02-29T07:19:48.751Z,47.50
2024-02-29T07:22:17.181Z,45.90
2024-02-29T07:24:45.676Z,50.10
2024-02-29T07:27:22.497Z,51.60
2024-02-29T07:29:50.923Z,62.20
2024-02-29T07:32:19.195Z,55.30
2024-02-29T07:34:47.608Z,50.20
2024-02-29T07:37:16.039Z,43.70
2024-02-29T07:39:44.479Z,54.30
2024-02-29T07:42:13.262Z,50.30
2024-02-29T07:44:41.779Z,48.90
2024-02-29T07:47:10.433Z,44.80
2024-02-29T07:49:45.546Z,41.20
2024-02-29T07:52:14.442Z,43.80
2024-02-29T07:54:44.655Z,40.30
2024-02-29T07:57:13.607Z,38.20
2024-02-29T07:59:49.368Z,41.00
2024-02-29T08:02:35.452Z,38.80
2024-02-29T08:05:05.447Z,44.20
2024-02-29T08:07:34.154Z,40.00
2024-02-29T08:10:04.066Z,41.30
2024-02-29T08:12:32.671Z,41.70
2024-02-29T08:15:01.169Z,36.30
2024-02-29T08:17:32.073Z,49.00
2024-02-29T08:20:00.752Z,44.50
2024-02-29T08:22:29.498Z,41.40
2024-02-29T08:24:58.399Z,44.00
2024-02-29T08:27:27.112Z,36.10
2024-02-29T08:29:55.624Z,33.70
2024-02-29T08:32:23.950Z,31.90
2024-02-29T08:34:52.239Z,35.80
2024-02-29T08:37:21.957Z,41.40
2024-02-29T08:39:51.042Z,49.00
2024-02-29T08:42:19.382Z,68.50
2024-02-29T08:44:50.064Z,60.00
2024-02-29T08:47:18.588Z,47.20
2024-02-29T08:49:49.631Z,48.30
2024-02-29T08:52:27.396Z,48.60
2024-02-29T08:54:55.903Z,50.40
2024-02-29T08:57:24.413Z,40.30
2024-02-29T08:59:52.602Z,57.50
2024-02-29T09:02:20.981Z,66.00
2024-02-29T09:04:49.371Z,56.30
2024-02-29T09:07:17.957Z,56.00
2024-02-29T09:09:49.498Z,52.20
2024-02-29T09:12:18.929Z,56.00
2024-02-29T09:14:47.660Z,55.00
2024-02-29T09:17:16.085Z,48.70
2024-02-29T09:19:44.551Z,44.80
2024-02-29T09:22:13.350Z,47.70
2024-02-29T09:24:41.926Z,52.60
2024-02-29T09:27:10.821Z,42.70
2024-02-29T09:29:39.204Z,51.80
2024-02-29T09:32:07.598Z,55.30
2024-02-29T09:34:40.858Z,42.10
2024-02-29T09:37:11.574Z,48.60
2024-02-29T09:39:40.242Z,55.00
2024-02-29T09:42:14.012Z,49.30
2024-02-29T09:44:44.650Z,34.00
2024-02-29T09:47:14.841Z,38.50
2024-02-29T09:49:45.149Z,36.70
2024-02-29T09:52:17.598Z,37.60
2024-02-29T09:54:47.070Z,33.10
2024-02-29T09:57:15.661Z,35.20
2024-02-29T09:59:44.976Z,33.50
2024-02-29T10:02:18.878Z,40.40
2024-02-29T10:04:48.021Z,37.00
2024-02-29T10:07:16.697Z,33.70
2024-02-29T10:09:46.135Z,30.70
2024-02-29T10:12:19.059Z,35.60
2024-02-29T10:14:48.389Z,34.70
2024-02-29T10:17:16.702Z,35.10
2024-02-29T10:19:45.149Z,36.80
2024-02-29T10:22:20.463Z,32.90
2024-02-29T10:24:53.061Z,39.00
2024-02-29T10:27:23.627Z,32.10
2024-02-29T10:29:52.497Z,36.60
2024-02-29T10:32:21.722Z,39.70
2024-02-29T10:34:50.152Z,35.70
2024-02-29T10:37:18.775Z,41.40
2024-02-29T10:39:47.344Z,36.70
2024-02-29T10:42:19.944Z,35.70
2024-02-29T10:44:52.796Z,34.60
2024-02-29T10:47:24.151Z,35.70
2024-02-29T10:49:58.877Z,42.60
2024-02-29T10:52:34.870Z,36.60
2024-02-29T10:55:11.439Z,41.20
2024-02-29T10:57:45.855Z,35.80
2024-02-29T11:00:15.782Z,32.20
2024-02-29T11:02:45.193Z,35.60
2024-02-29T11:05:14.559Z,34.30
2024-02-29T11:07:44.245Z,31.60
2024-02-29T11:10:13.607Z,35.20
2024-02-29T11:12:43.976Z,39.90
2024-02-29T11:17:42.848Z,39.10
2024-02-29T11:20:20.373Z,45.20
2024-02-29T11:22:49.736Z,34.70
2024-02-29T11:25:22.882Z,38.60
2024-02-29T11:27:52.795Z,32.50
2024-02-29T11:30:25.143Z,34.70
2024-02-29T11:32:53.682Z,32.40
2024-02-29T11:35:22.210Z,31.40
2024-02-29T11:37:54.649Z,35.20
2024-02-29T11:40:25.310Z,33.60
2024-02-29T11:43:02.795Z,34.00
2024-02-29T11:45:45.530Z,32.80
2024-02-29T11:48:30.059Z,31.40
2024-02-29T11:50:58.426Z,36.30
2024-02-29T11:53:27.989Z,31.60
2024-02-29T11:56:02.930Z,29.90
2024-02-29T11:58:39.319Z,28.00
2024-02-29T12:01:07.906Z,39.40
2024-02-29T12:03:36.227Z,29.50
2024-02-29T12:06:05.419Z,31.50
2024-02-29T12:08:34.104Z,28.00
2024-02-29T12:11:02.436Z,34.00
2024-02-29T12:13:31.157Z,33.70
2024-02-29T12:15:59.592Z,40.60
2024-02-29T12:18:28.074Z,34.20
2024-02-29T12:20:57.949Z,31.40
2024-02-29T12:23:34.818Z,36.50
2024-02-29T12:26:13.188Z,32.20
2024-02-29T12:28:41.987Z,32.90
2024-02-29T12:31:10.799Z,35.10
2024-02-29T12:33:40.510Z,32.70
2024-02-29T12:36:13.899Z,30.60
2024-02-29T12:38:42.287Z,33.00
2024-02-29T12:41:11.457Z,37.80
2024-02-29T12:43:47.277Z,45.90
2024-02-29T12:46:16.844Z,35.10
2024-02-29T12:48:47.310Z,30.60
2024-02-29T12:53:44.094Z,33.80
2024-02-29T12:56:12.740Z,34.70
2024-02-29T12:58:42.260Z,38.00
2024-02-29T13:01:11.132Z,32.40
2024-02-29T13:03:39.458Z,29.40
2024-02-29T13:06:08.198Z,30.70
2024-02-29T13:08:36.605Z,28.80
2024-02-29T13:11:05.189Z,30.90
2024-02-29T13:13:33.433Z,26.90
2024-02-29T13:16:01.944Z,32.00
2024-02-29T13:18:30.146Z,30.40
2024-02-29T13:21:00.686Z,34.20
2024-02-29T13:23:29.827Z,29.20
2024-02-29T13:26:00.915Z,27.30
2024-02-29T13:28:29.708Z,41.30
2024-02-29T13:30:58.185Z,30.20
2024-02-29T13:33:26.424Z,26.20
2024-02-29T13:35:55.407Z,29.70
2024-02-29T13:38:23.860Z,28.00
2024-02-29T13:40:52.206Z,36.60
2024-02-29T13:43:20.582Z,23.70
2024-02-29T13:45:49.685Z,23.30
2024-02-29T13:48:18.091Z,24.90
2024-02-29T13:50:46.492Z,25.30
2024-02-29T13:53:15.768Z,23.30
2024-02-29T13:55:48.018Z,29.30
2024-02-29T13:58:16.842Z,20.20
2024-02-29T14:00:45.578Z,26.00
2024-02-29T14:03:13.871Z,19.90
2024-02-29T14:05:42.484Z,24.30
2024-02-29T14:08:10.967Z,23.80
2024-02-29T14:10:39.443Z,27.70
2024-02-29T14:13:08.241Z,25.70
2024-02-29T14:15:38.152Z,23.20
2024-02-29T14:18:08.998Z,25.90
2024-02-29T14:20:37.458Z,38.80
2024-02-29T14:23:06.051Z,56.50
2024-02-29T14:25:34.576Z,36.80
2024-02-29T14:28:03.271Z,32.30
2024-02-29T14:30:31.962Z,26.80
2024-02-29T14:33:03.646Z,26.80
2024-02-29T14:35:36.390Z,42.00
2024-02-29T14:38:08.576Z,39.40
2024-02-29T14:40:37.011Z,45.50
2024-02-29T14:43:06.049Z,43.00
2024-02-29T14:45:34.539Z,46.10
2024-02-29T14:48:03.355Z,43.90
2024-02-29T14:50:31.624Z,35.80
2024-02-29T14:53:05.167Z,29.90
2024-02-29T14:55:46.088Z,38.50
2024-02-29T14:58:14.782Z,34.60
2024-02-29T15:00:54.577Z,39.40
2024-02-29T15:03:23.832Z,42.40
2024-02-29T15:05:52.454Z,37.60
2024-02-29T15:08:21.111Z,45.70
2024-02-29T15:10:49.345Z,34.50
2024-02-29T15:13:19.951Z,35.80
2024-02-29T15:15:48.609Z,32.40
2024-02-29T15:18:19.940Z,35.80
2024-02-29T15:20:48.249Z,29.70
2024-02-29T15:23:16.648Z,46.00
2024-02-29T15:25:48.376Z,33.20
2024-02-29T15:28:17.137Z,39.60
2024-02-29T15:30:45.574Z,29.60
2024-02-29T15:33:13.977Z,25.90
2024-02-29T15:35:42.433Z,28.70
2024-02-29T15:38:10.843Z,27.80
2024-02-29T15:40:39.836Z,28.90
2024-02-29T15:43:08.133Z,27.80
2024-02-29T15:45:36.945Z,31.40
2024-02-29T15:48:05.505Z,29.30
2024-02-29T15:50:35.243Z,33.50
2024-02-29T15:53:03.749Z,46.90
2024-02-29T15:55:32.052Z,41.90
2024-02-29T15:58:00.499Z,44.40
2024-02-29T16:00:29.153Z,41.30
2024-02-29T16:03:13.874Z,35.60
2024-02-29T16:05:42.883Z,47.40
2024-02-29T16:08:15.082Z,36.10
2024-02-29T16:10:43.423Z,33.50
2024-02-29T16:13:14.943Z,37.70
2024-02-29T16:15:43.553Z,41.00
2024-02-29T16:18:12.079Z,37.40
2024-02-29T16:20:43.435Z,35.50
2024-02-29T16:23:11.945Z,37.20
2024-02-29T16:25:41.274Z,32.40
2024-02-29T16:28:10.600Z,31.30
2024-02-29T16:30:39.603Z,40.40
2024-02-29T16:33:08.128Z,34.60
2024-02-29T16:35:36.657Z,40.30
2024-02-29T16:38:04.981Z,45.80
2024-02-29T16:40:37.404Z,38.50
2024-02-29T16:43:06.613Z,44.50
2024-02-29T16:45:34.972Z,40.90
2024-02-29T16:48:03.931Z,48.50
2024-02-29T16:50:32.552Z,55.00
2024-02-29T16:53:00.877Z,43.40
2024-02-29T16:55:29.180Z,36.30
2024-02-29T16:57:57.656Z,37.50
2024-02-29T17:00:26.496Z,31.40
2024-02-29T17:02:54.778Z,32.50
2024-02-29T17:05:23.113Z,31.20
2024-02-29T17:07:51.484Z,27.60
2024-02-29T17:10:19.832Z,30.20
2024-02-29T17:12:48.220Z,31.60
2024-02-29T17:15:16.660Z,33.10
2024-02-29T17:17:45.635Z,29.50
2024-02-29T17:20:14.056Z,26.40
2024-02-29T17:22:44.316Z,27.30
2024-02-29T17:25:15.129Z,28.80
2024-02-29T17:27:43.434Z,28.60
2024-02-29T17:30:13.121Z,34.90
2024-02-29T17:32:50.221Z,28.80
2024-02-29T17:35:21.111Z,31.20
2024-02-29T17:37:54.815Z,32.70
2024-02-29T17:40:23.313Z,29.80
2024-02-29T17:43:00.115Z,33.40
2024-02-29T17:45:28.478Z,26.00
2024-02-29T17:47:57.192Z,28.90
2024-02-29T17:50:26.608Z,26.40
2024-02-29T17:52:55.298Z,33.40
2024-02-29T17:55:23.892Z,29.10
2024-02-29T17:57:52.408Z,28.70
2024-02-29T18:00:21.152Z,34.40
2024-02-29T18:02:49.432Z,29.00
2024-02-29T18:05:17.839Z,23.50
2024-02-29T18:07:51.218Z,28.80
2024-02-29T18:10:27.644Z,26.80
2024-02-29T18:13:00.976Z,29.30
2024-02-29T18:15:29.395Z,26.50
2024-02-29T18:17:57.654Z,30.00
2024-02-29T18:20:26.309Z,26.20
2024-02-29T18:23:02.475Z,24.80
2024-02-29T18:25:30.844Z,26.60
2024-02-29T18:27:59.765Z,27.30
2024-02-29T18:30:32.370Z,23.20
2024-02-29T18:33:03.486Z,24.60
2024-02-29T18:35:32.907Z,20.30
2024-02-29T18:38:08.811Z,22.50
2024-02-29T18:40:37.453Z,28.00
2024-02-29T18:43:11.541Z,27.90
2024-02-29T18:46:05.088Z,24.80
2024-02-29T18:48:36.739Z,28.10
2024-02-29T18:51:05.593Z,23.80
2024-02-29T18:53:34.067Z,25.70
2024-02-29T18:56:02.506Z,29.60
2024-02-29T18:58:31.521Z,28.70
2024-02-29T19:01:00.014Z,33.90
2024-02-29T19:03:28.481Z,24.30
2024-02-29T19:05:57.431Z,33.80
2024-02-29T19:08:26.039Z,27.30
2024-02-29T19:10:54.569Z,27.60
2024-02-29T19:13:24.490Z,26.70
2024-02-29T19:15:53.242Z,23.30
2024-02-29T19:18:21.490Z,29.30
2024-02-29T19:20:50.121Z,28.50
2024-02-29T19:23:20.661Z,27.40
2024-02-29T19:28:18.843Z,25.70
2024-02-29T19:30:47.370Z,29.90
2024-02-29T19:33:19.665Z,32.90
2024-02-29T19:35:52.256Z,30.10
2024-02-29T19:38:20.708Z,29.20
2024-02-29T19:40:48.978Z,29.10
2024-02-29T19:43:18.220Z,31.20
2024-02-29T19:45:46.829Z,26.10
2024-02-29T19:48:16.949Z,23.90
2024-02-29T19:50:45.321Z,30.60
2024-02-29T19:53:13.926Z,24.90
2024-02-29T19:55:43.403Z,23.50
2024-02-29T19:58:13.834Z,21.90
2024-02-29T20:03:11.568Z,22.70
2024-02-29T20:05:40.139Z,19.70
2024-02-29T20:08:08.844Z,21.50
2024-02-29T20:10:37.302Z,21.50
2024-02-29T20:13:06.932Z,21.70
2024-02-29T20:15:37.141Z,22.00
2024-02-29T20:18:05.705Z,21.30
2024-02-29T20:20:34.156Z,21.60
2024-02-29T20:23:02.361Z,25.90
2024-02-29T20:25:30.940Z,24.70
2024-02-29T20:27:59.521Z,23.80
2024-02-29T20:30:28.816Z,20.90
2024-02-29T20:32:57.172Z,24.80
2024-02-29T20:35:25.488Z,21.50
2024-02-29T20:37:53.797Z,20.30
2024-02-29T20:40:23.163Z,20.40
2024-02-29T20:42:52.133Z,19.20
2024-02-29T20:45:20.361Z,19.70
2024-02-29T20:47:48.907Z,19.90
2024-02-29T20:50:17.408Z,20.50
2024-02-29T20:52:45.675Z,24.30
2024-02-29T20:55:14.874Z,22.30
2024-02-29T20:57:44.321Z,25.60
2024-02-29T21:00:13.327Z,30.30
2024-02-29T21:02:41.704Z,31.60
2024-02-29T21:05:10.242Z,36.40
2024-02-29T21:07:41.173Z,29.80
2024-02-29T21:10:11.939Z,28.50
2024-02-29T21:12:41.969Z,26.40
2024-02-29T21:15:11.079Z,25.60
2024-02-29T21:17:39.623Z,23.40
2024-02-29T21:20:11.948Z,31.30
2024-02-29T21:22:52.082Z,28.50
2024-02-29T21:25:24.108Z,32.10
2024-02-29T21:27:52.672Z,30.00
2024-02-29T21:30:21.204Z,25.10
2024-02-29T21:32:57.425Z,44.70
2024-02-29T21:35:26.751Z,75.40
2024-02-29T21:37:55.624Z,71.00
2024-02-29T21:40:24.144Z,59.50
2024-02-29T21:42:52.716Z,51.60
2024-02-29T21:45:34.932Z,56.90
2024-02-29T21:48:17.953Z,70.20
2024-02-29T21:50:46.848Z,65.00
2024-02-29T21:53:15.364Z,60.30
2024-02-29T21:55:46.219Z,61.70
2024-02-29T21:58:19.709Z,58.90
2024-02-29T22:00:48.402Z,54.80
2024-02-29T22:03:16.939Z,54.70
2024-02-29T22:05:47.545Z,63.40
2024-02-29T22:08:16.029Z,71.20
2024-02-29T22:10:45.741Z,67.90
2024-02-29T22:13:15.387Z,68.20
2024-02-29T22:15:44.073Z,62.90
2024-02-29T22:18:16.171Z,70.60
2024-02-29T22:20:47.496Z,57.60
2024-02-29T22:23:21.349Z,56.60
2024-02-29T22:25:53.255Z,56.30
2024-02-29T22:28:21.846Z,43.90
2024-02-29T22:30:50.145Z,41.90
2024-02-29T22:33:19.000Z,42.70
2024-02-29T22:35:47.422Z,46.70
2024-02-29T22:38:19.332Z,53.60
2024-02-29T22:40:56.981Z,60.00
2024-02-29T22:43:28.645Z,52.00
2024-02-29T22:45:57.222Z,69.60
2024-02-29T22:48:25.648Z,52.80
2024-02-29T22:50:54.546Z,53.80
2024-02-29T22:53:23.365Z,53.90
2024-02-29T22:55:52.192Z,45.10
2024-02-29T22:58:21.388Z,45.20
2024-02-29T23:03:22.517Z,43.50
2024-02-29T23:05:53.706Z,43.30
2024-02-29T23:08:22.182Z,44.10
2024-02-29T23:10:52.792Z,48.70
2024-02-29T23:13:21.352Z,43.40
2024-02-29T23:15:52.339Z,41.00
2024-02-29T23:18:20.593Z,42.00
2024-02-29T23:20:49.030Z,36.90
2024-02-29T23:23:17.548Z,39.10
2024-02-29T23:25:46.104Z,40.50
2024-02-29T23:28:14.533Z,28.00
2024-02-29T23:30:43.103Z,32.90
2024-02-29T23:33:11.506Z,39.50
2024-02-29T23:35:40.098Z,37.90
2024-02-29T23:38:08.683Z,29.50
2024-02-29T23:40:36.998Z,35.30
2024-02-29T23:43:08.153Z,33.40
2024-02-29T23:45:36.416Z,38.50
2024-02-29T23:48:07.371Z,37.00
2024-02-29T23:50:36.102Z,39.60
2024-02-29T23:53:07.902Z,37.90
2024-02-29T23:55:36.625Z,39.00
2024-02-29T23:58:05.324Z,42.60
